createdAt,value
2022-10-13T00:01:53.177Z,22.05
2022-10-13T00:04:19.932Z,21.27
2022-10-13T00:06:46.713Z,21.90
2022-10-13T00:09:13.647Z,20.95
2022-10-13T00:11:40.323Z,22.55
2022-10-13T00:14:06.988Z,23.38
2022-10-13T00:16:35.436Z,19.80
2022-10-13T00:19:02.226Z,20.83
2022-10-13T00:21:29.141Z,20.63
2022-10-13T00:23:56.434Z,20.40
2022-10-13T00:26:24.955Z,21.48
2022-10-13T00:28:53.185Z,21.20
2022-10-13T00:31:24.465Z,20.25
2022-10-13T00:33:52.914Z,18.83
2022-10-13T00:36:22.621Z,21.05
2022-10-13T00:38:49.312Z,19.85
2022-10-13T00:41:16.140Z,19.73
2022-10-13T00:43:57.796Z,19.52
2022-10-13T00:46:31.831Z,19.63
2022-10-13T00:49:03.676Z,19.90
2022-10-13T00:51:33.678Z,20.33
2022-10-13T00:56:29.564Z,17.67
2022-10-13T00:58:57.274Z,17.75
2022-10-13T01:01:24.013Z,18.27
2022-10-13T01:03:50.819Z,18.63
2022-10-13T01:06:22.643Z,18.73
2022-10-13T01:08:50.251Z,18.25
2022-10-13T01:11:35.329Z,20.40
2022-10-13T01:14:20.591Z,17.83
2022-10-13T01:16:58.021Z,19.25
2022-10-13T01:19:30.692Z,18.60
2022-10-13T01:22:15.774Z,17.58
2022-10-13T01:25:20.291Z,20.15
2022-10-13T01:27:46.923Z,19.67
2022-10-13T01:30:17.193Z,19.95
2022-10-13T01:33:22.529Z,21.02
2022-10-13T01:36:00.954Z,19.33
2022-10-13T01:38:36.574Z,19.85
2022-10-13T01:41:10.779Z,19.10
2022-10-13T01:43:51.837Z,19.83
2022-10-13T01:46:24.868Z,17.48
2022-10-13T01:48:55.378Z,18.13
2022-10-13T01:51:25.243Z,16.85
2022-10-13T01:53:52.792Z,18.67
2022-10-13T01:56:19.577Z,18.60
2022-10-13T01:58:49.849Z,20.23
2022-10-13T02:01:25.656Z,19.58
2022-10-13T02:04:20.176Z,19.20
2022-10-13T02:06:57.944Z,19.02
2022-10-13T02:09:28.169Z,18.00
2022-10-13T02:12:10.075Z,19.23
2022-10-13T02:14:42.566Z,19.90
2022-10-13T02:17:10.407Z,21.17
2022-10-13T02:19:39.357Z,21.48
2022-10-13T02:22:08.315Z,20.73
2022-10-13T02:24:35.865Z,20.48
2022-10-13T02:27:05.183Z,21.40
2022-10-13T02:29:31.938Z,22.15
2022-10-13T02:31:58.832Z,22.20
2022-10-13T02:34:26.092Z,20.40
2022-10-13T02:36:52.729Z,19.98
2022-10-13T02:39:19.360Z,20.30
2022-10-13T02:41:46.448Z,19.15
2022-10-13T02:44:13.133Z,20.73
2022-10-13T02:46:42.418Z,20.30
2022-10-13T02:49:10.627Z,19.25
2022-10-13T02:51:40.147Z,20.73
2022-10-13T02:54:07.520Z,21.15
2022-10-13T02:56:34.239Z,21.42
2022-10-13T02:59:00.890Z,20.95
2022-10-13T03:01:27.965Z,18.08
2022-10-13T03:03:54.796Z,19.65
2022-10-13T03:06:21.866Z,19.48
2022-10-13T03:08:48.600Z,18.42
2022-10-13T03:11:15.302Z,18.73
2022-10-13T03:13:41.966Z,17.85
2022-10-13T03:16:08.923Z,17.42
2022-10-13T03:18:35.625Z,18.90
2022-10-13T03:21:06.558Z,17.50
2022-10-13T03:23:34.227Z,18.33
2022-10-13T03:26:00.955Z,17.83
2022-10-13T03:28:28.637Z,19.65
2022-10-13T03:31:03.549Z,19.55
2022-10-13T03:33:30.284Z,18.13
2022-10-13T03:36:01.941Z,18.23
2022-10-13T03:38:30.472Z,18.40
2022-10-13T03:40:57.319Z,19.02
2022-10-13T03:43:25.472Z,17.27
2022-10-13T03:45:59.900Z,17.75
2022-10-13T03:48:27.347Z,17.75
2022-10-13T03:50:57.062Z,18.98
2022-10-13T03:53:24.373Z,18.40
2022-10-13T03:55:53.050Z,19.13
2022-10-13T03:58:21.024Z,18.95
2022-10-13T04:00:50.328Z,17.80
2022-10-13T04:03:17.249Z,17.13
2022-10-13T04:05:44.112Z,17.10
2022-10-13T04:08:11.601Z,17.60
2022-10-13T04:10:39.035Z,18.02
2022-10-13T04:13:06.102Z,17.08
2022-10-13T04:15:40.342Z,16.80
2022-10-13T04:18:08.063Z,17.23
2022-10-13T04:20:38.322Z,15.95
2022-10-13T04:23:05.291Z,17.35
2022-10-13T04:25:35.549Z,18.17
2022-10-13T04:28:03.938Z,17.23
2022-10-13T04:30:35.004Z,18.92
2022-10-13T04:33:01.876Z,17.95
2022-10-13T04:35:29.052Z,17.52
2022-10-13T04:37:58.040Z,17.50
2022-10-13T04:40:25.955Z,17.70
2022-10-13T04:42:52.605Z,19.33
2022-10-13T04:45:19.225Z,19.10
2022-10-13T04:50:16.657Z,17.02
2022-10-13T04:52:45.392Z,18.02
2022-10-13T04:55:12.073Z,17.77
2022-10-13T04:57:38.680Z,17.50
2022-10-13T05:00:07.316Z,17.77
2022-10-13T05:02:37.668Z,18.45
2022-10-13T05:05:05.189Z,17.58
2022-10-13T05:07:32.541Z,17.90
2022-10-13T05:09:59.192Z,17.67
2022-10-13T05:12:25.819Z,19.02
2022-10-13T05:14:52.415Z,17.85
2022-10-13T05:17:19.043Z,17.52
2022-10-13T05:19:45.677Z,17.88
2022-10-13T05:22:12.384Z,17.42
2022-10-13T05:24:41.274Z,18.10
2022-10-13T05:27:13.196Z,18.92
2022-10-13T05:29:40.664Z,18.10
2022-10-13T05:32:08.553Z,17.85
2022-10-13T05:34:35.442Z,17.30
2022-10-13T05:37:02.129Z,18.52
2022-10-13T05:39:28.884Z,17.27
2022-10-13T05:41:55.620Z,17.92
2022-10-13T05:44:22.486Z,17.75
2022-10-13T05:46:55.968Z,15.95
2022-10-13T05:49:22.895Z,16.40
2022-10-13T05:51:55.493Z,15.82
2022-10-13T05:54:38.697Z,17.40
2022-10-13T05:57:13.887Z,15.45
2022-10-13T05:59:46.046Z,14.65
2022-10-13T06:02:15.971Z,15.85
2022-10-13T06:04:46.497Z,16.27
2022-10-13T06:07:13.365Z,15.32
2022-10-13T06:09:42.070Z,16.48
2022-10-13T06:12:09.608Z,16.92
2022-10-13T06:14:36.730Z,17.85
2022-10-13T06:17:06.374Z,16.65
2022-10-13T06:19:33.185Z,16.95
2022-10-13T06:22:07.529Z,16.77
2022-10-13T06:24:34.718Z,17.45
2022-10-13T06:27:03.784Z,16.58
2022-10-13T06:29:30.431Z,16.67
2022-10-13T06:31:57.099Z,16.77
2022-10-13T06:34:23.832Z,17.05
2022-10-13T06:36:50.539Z,16.60
2022-10-13T06:39:17.950Z,15.57
2022-10-13T06:41:44.967Z,15.73
2022-10-13T06:44:11.898Z,16.35
2022-10-13T06:46:38.502Z,17.25
2022-10-13T06:49:05.181Z,17.20
2022-10-13T06:51:32.317Z,17.00
2022-10-13T06:53:58.968Z,17.58
2022-10-13T06:56:25.616Z,18.65
2022-10-13T06:58:52.259Z,18.52
2022-10-13T07:01:19.026Z,19.58
2022-10-13T07:03:48.931Z,18.92
2022-10-13T07:06:19.222Z,19.17
2022-10-13T07:08:46.131Z,19.15
2022-10-13T07:11:16.123Z,19.73
2022-10-13T07:13:47.604Z,20.58
2022-10-13T07:16:15.924Z,19.92
2022-10-13T07:18:42.817Z,20.40
2022-10-13T07:21:09.752Z,20.60
2022-10-13T07:23:36.356Z,19.80
2022-10-13T07:26:07.547Z,20.27
2022-10-13T07:28:34.432Z,21.25
2022-10-13T07:31:07.062Z,21.50
2022-10-13T07:33:36.894Z,21.35
2022-10-13T07:36:04.491Z,21.10
2022-10-13T07:38:31.399Z,24.17
2022-10-13T07:41:02.373Z,23.17
2022-10-13T07:43:29.205Z,21.92
2022-10-13T07:45:59.529Z,21.05
2022-10-13T07:48:27.673Z,20.45
2022-10-13T07:50:56.691Z,23.03
2022-10-13T07:53:23.544Z,22.30
2022-10-13T07:55:50.428Z,22.63
2022-10-13T07:58:17.203Z,22.00
2022-10-13T08:00:43.813Z,21.67
2022-10-13T08:03:10.502Z,22.00
2022-10-13T08:05:38.341Z,21.45
2022-10-13T08:08:05.306Z,21.67
2022-10-13T08:10:32.052Z,20.88
2022-10-13T08:12:58.733Z,21.38
2022-10-13T08:15:25.519Z,19.50
2022-10-13T08:17:52.300Z,18.30
2022-10-13T08:20:19.707Z,17.48
2022-10-13T08:22:46.328Z,17.70
2022-10-13T08:25:12.999Z,17.73
2022-10-13T08:27:50.621Z,16.05
2022-10-13T08:30:18.290Z,16.58
2022-10-13T08:32:44.973Z,15.65
2022-10-13T08:35:11.854Z,15.88
2022-10-13T08:37:38.489Z,15.18
2022-10-13T08:40:05.630Z,15.15
2022-10-13T08:42:32.364Z,14.43
2022-10-13T08:48:01.982Z,14.55
2022-10-13T08:50:35.874Z,15.27
2022-10-13T08:53:30.780Z,14.30
2022-10-13T08:56:25.262Z,14.35
2022-10-13T08:58:54.472Z,15.00
2022-10-13T09:01:24.699Z,14.48
2022-10-13T09:03:57.756Z,15.60
2022-10-13T09:06:28.977Z,17.25
2022-10-13T09:08:59.599Z,16.67
2022-10-13T09:11:36.067Z,15.52
2022-10-13T09:14:07.085Z,16.48
2022-10-13T09:16:37.572Z,17.10
2022-10-13T09:19:27.519Z,17.13
2022-10-13T09:22:13.195Z,16.15
2022-10-13T09:24:40.029Z,17.40
2022-10-13T09:27:20.112Z,17.95
2022-10-13T09:29:46.936Z,18.13
2022-10-13T09:32:23.885Z,19.15
2022-10-13T09:34:52.779Z,18.88
2022-10-13T09:37:25.079Z,18.75
2022-10-13T09:40:14.647Z,18.38
2022-10-13T09:42:41.420Z,17.60
2022-10-13T09:45:17.047Z,17.20
2022-10-13T09:47:52.359Z,19.17
2022-10-13T09:50:23.178Z,17.75
2022-10-13T09:52:50.768Z,19.42
2022-10-13T09:55:31.327Z,18.92
2022-10-13T09:58:12.361Z,18.58
2022-10-13T10:00:40.576Z,18.88
2022-10-13T10:03:18.483Z,18.05
2022-10-13T10:05:50.858Z,18.02
2022-10-13T10:08:51.253Z,18.67
2022-10-13T10:11:33.107Z,18.75
2022-10-13T10:14:22.720Z,18.25
2022-10-13T10:17:01.943Z,16.15
2022-10-13T10:19:41.630Z,18.02
2022-10-13T10:22:32.853Z,18.38
2022-10-13T10:25:33.619Z,18.10
2022-10-13T10:28:12.408Z,18.75
2022-10-13T10:30:49.723Z,17.08
2022-10-13T10:33:26.305Z,16.30
2022-10-13T10:36:17.171Z,16.30
2022-10-13T10:39:00.153Z,16.52
2022-10-13T10:41:39.089Z,17.60
2022-10-13T10:44:21.574Z,16.43
2022-10-13T10:46:50.043Z,16.65
2022-10-13T10:49:30.241Z,15.25
2022-10-13T10:51:58.374Z,13.57
2022-10-13T10:54:48.404Z,15.82
2022-10-13T10:57:38.176Z,17.02
2022-10-13T11:00:11.720Z,16.25
2022-10-13T11:03:00.963Z,16.52
2022-10-13T11:06:01.528Z,15.10
2022-10-13T11:08:31.108Z,15.10
2022-10-13T11:11:26.611Z,15.70
2022-10-13T11:13:58.286Z,14.90
2022-10-13T11:16:39.564Z,15.32
2022-10-13T11:19:32.197Z,14.63
2022-10-13T11:21:59.810Z,15.32
2022-10-13T11:24:34.186Z,13.60
2022-10-13T11:27:16.136Z,13.80
2022-10-13T11:29:58.008Z,13.90
2022-10-13T11:32:27.741Z,14.40
2022-10-13T11:35:00.879Z,13.10
2022-10-13T11:37:40.010Z,14.15
2022-10-13T11:40:15.660Z,13.23
2022-10-13T11:43:09.802Z,12.23
2022-10-13T11:45:50.028Z,12.60
2022-10-13T11:48:36.583Z,12.50
2022-10-13T11:51:23.772Z,12.60
2022-10-13T11:54:16.156Z,13.85
2022-10-13T11:56:55.600Z,12.45
2022-10-13T11:59:25.550Z,12.98
2022-10-13T12:01:57.063Z,13.40
2022-10-13T12:04:26.027Z,12.55
2022-10-13T12:07:00.588Z,12.67
2022-10-13T12:09:29.480Z,11.50
2022-10-13T12:12:03.100Z,11.03
2022-10-13T12:14:35.885Z,12.82
2022-10-13T12:17:02.781Z,11.95
2022-10-13T12:19:31.788Z,12.55
2022-10-13T12:22:01.296Z,12.18
2022-10-13T12:24:29.904Z,12.40
2022-10-13T12:26:57.614Z,11.27
2022-10-13T12:29:27.879Z,12.40
2022-10-13T12:34:28.647Z,11.98
2022-10-13T12:37:01.018Z,10.48
2022-10-13T12:39:30.953Z,11.07
2022-10-13T12:41:59.218Z,10.50
2022-10-13T12:44:28.622Z,11.30
2022-10-13T12:46:59.058Z,11.48
2022-10-13T12:49:35.374Z,9.38
2022-10-13T12:52:34.229Z,10.02
2022-10-13T12:55:01.735Z,9.50
2022-10-13T12:57:38.438Z,10.00
2022-10-13T13:00:20.540Z,10.20
2022-10-13T13:02:58.871Z,10.30
2022-10-13T13:05:34.195Z,9.70
2022-10-13T13:08:23.405Z,9.55
2022-10-13T13:11:09.438Z,9.35
2022-10-13T13:13:36.150Z,8.48
2022-10-13T13:16:21.493Z,9.32
2022-10-13T13:18:50.276Z,9.20
2022-10-13T13:21:20.146Z,9.95
2022-10-13T13:23:52.855Z,8.85
2022-10-13T13:26:23.034Z,9.98
2022-10-13T13:28:52.083Z,9.25
2022-10-13T13:31:21.034Z,9.93
2022-10-13T13:33:49.046Z,9.00
2022-10-13T13:36:19.016Z,9.57
2022-10-13T13:38:47.169Z,9.98
2022-10-13T13:41:14.551Z,9.00
2022-10-13T13:43:41.807Z,8.35
2022-10-13T13:46:21.570Z,8.65
2022-10-13T13:51:15.519Z,9.43
2022-10-13T13:53:44.560Z,8.38
2022-10-13T13:56:18.020Z,9.27
2022-10-13T13:58:45.495Z,9.55
2022-10-13T14:01:13.442Z,8.75
2022-10-13T14:03:40.353Z,9.32
2022-10-13T14:06:08.881Z,9.68
2022-10-13T14:08:42.333Z,9.88
2022-10-13T14:11:09.889Z,8.77
2022-10-13T14:13:36.533Z,9.73
2022-10-13T14:16:03.662Z,9.35
2022-10-13T14:18:31.228Z,9.02
2022-10-13T14:20:57.867Z,9.20
2022-10-13T14:23:24.541Z,9.38
2022-10-13T14:25:51.241Z,8.07
2022-10-13T14:28:18.551Z,10.30
2022-10-13T14:30:45.450Z,9.50
2022-10-13T14:33:12.224Z,9.38
2022-10-13T14:35:38.822Z,8.63
2022-10-13T14:38:05.942Z,8.90
2022-10-13T14:40:33.676Z,9.40
2022-10-13T14:43:00.279Z,9.27
2022-10-13T14:45:26.909Z,8.98
2022-10-13T14:47:53.741Z,9.57
2022-10-13T14:50:20.395Z,8.98
2022-10-13T14:52:51.842Z,10.20
2022-10-13T14:55:18.506Z,9.48
2022-10-13T14:57:45.099Z,8.98
2022-10-13T15:00:13.681Z,9.30
2022-10-13T15:02:40.316Z,9.68
2022-10-13T15:05:07.219Z,10.00
2022-10-13T15:07:36.801Z,9.55
2022-10-13T15:10:06.709Z,11.32
2022-10-13T15:12:33.725Z,11.25
2022-10-13T15:15:00.454Z,12.00
2022-10-13T15:17:28.013Z,12.00
2022-10-13T15:19:54.805Z,10.45
2022-10-13T15:22:21.730Z,8.93
2022-10-13T15:24:48.615Z,9.40
2022-10-13T15:27:15.401Z,10.30
2022-10-13T15:29:42.003Z,10.45
2022-10-13T15:32:13.526Z,9.95
2022-10-13T15:34:41.135Z,10.23
2022-10-13T15:37:07.859Z,10.00
2022-10-13T15:39:34.586Z,9.77
2022-10-13T15:42:01.263Z,9.75
2022-10-13T15:44:28.085Z,9.20
2022-10-13T15:47:07.392Z,10.38
2022-10-13T15:49:39.532Z,9.98
2022-10-13T15:52:06.343Z,9.77
2022-10-13T15:54:33.144Z,8.95
2022-10-13T15:57:00.383Z,9.27
2022-10-13T15:59:26.975Z,9.48
2022-10-13T16:01:53.644Z,9.43
2022-10-13T16:04:20.290Z,9.57
2022-10-13T16:06:46.997Z,10.55
2022-10-13T16:09:13.604Z,10.57
2022-10-13T16:11:40.254Z,10.23
2022-10-13T16:14:06.921Z,10.32
2022-10-13T16:16:33.561Z,10.00
2022-10-13T16:19:00.353Z,10.57
2022-10-13T16:21:27.517Z,10.98
2022-10-13T16:23:54.328Z,11.20
2022-10-13T16:26:21.360Z,11.50
2022-10-13T16:28:48.220Z,12.07
2022-10-13T16:31:16.417Z,14.77
2022-10-13T16:33:45.067Z,12.68
2022-10-13T16:36:14.348Z,11.93
2022-10-13T16:38:41.619Z,11.60
2022-10-13T16:41:11.972Z,11.15
2022-10-13T16:43:38.638Z,13.25
2022-10-13T16:46:08.058Z,41.17
2022-10-13T16:48:34.957Z,21.55
2022-10-13T16:51:06.774Z,15.93
2022-10-13T16:53:34.301Z,16.27
2022-10-13T16:56:00.950Z,17.65
2022-10-13T16:58:27.618Z,21.02
2022-10-13T17:01:01.451Z,14.60
2022-10-13T17:03:28.103Z,13.35
2022-10-13T17:05:54.739Z,13.40
2022-10-13T17:08:21.412Z,14.18
2022-10-13T17:10:53.822Z,13.85
2022-10-13T17:13:24.097Z,14.98
2022-10-13T17:15:55.714Z,14.35
2022-10-13T17:18:23.289Z,15.43
2022-10-13T17:20:58.581Z,13.88
2022-10-13T17:23:26.362Z,13.30
2022-10-13T17:25:54.284Z,13.35
2022-10-13T17:28:21.398Z,21.27
2022-10-13T17:31:05.678Z,21.20
2022-10-13T17:33:35.142Z,15.60
2022-10-13T17:36:08.019Z,15.40
2022-10-13T17:38:34.871Z,13.98
2022-10-13T17:41:03.444Z,21.40
2022-10-13T17:43:30.821Z,25.58
2022-10-13T17:49:09.221Z,15.25
2022-10-13T17:51:36.213Z,14.43
2022-10-13T17:54:03.129Z,14.50
2022-10-13T17:56:30.089Z,14.02
2022-10-13T17:58:56.960Z,13.73
2022-10-13T18:01:29.606Z,15.02
2022-10-13T18:03:58.815Z,13.88
2022-10-13T18:06:32.623Z,12.98
2022-10-13T18:09:06.058Z,13.38
2022-10-13T18:11:33.970Z,13.70
2022-10-13T18:14:00.871Z,14.10
2022-10-13T18:16:27.602Z,14.40
2022-10-13T18:18:54.604Z,13.75
2022-10-13T18:21:24.002Z,14.15
2022-10-13T18:23:53.173Z,13.80
2022-10-13T18:26:20.467Z,13.63
2022-10-13T18:28:48.682Z,13.55
2022-10-13T18:31:23.593Z,13.88
2022-10-13T18:33:51.049Z,14.25
2022-10-13T18:36:23.608Z,14.38
2022-10-13T18:38:52.070Z,13.82
2022-10-13T18:41:20.815Z,13.90
2022-10-13T18:43:47.453Z,14.32
2022-10-13T18:46:16.241Z,16.67
2022-10-13T18:48:44.791Z,13.75
2022-10-13T18:51:14.334Z,13.90
2022-10-13T18:53:43.246Z,14.75
2022-10-13T18:58:49.198Z,12.65
2022-10-13T19:01:21.974Z,13.00
2022-10-13T19:03:50.965Z,13.82
2022-10-13T19:06:19.807Z,13.70
2022-10-13T19:08:51.151Z,13.60
2022-10-13T19:11:20.055Z,13.23
2022-10-13T19:13:48.631Z,14.27
2022-10-13T19:16:18.590Z,15.68
2022-10-13T19:21:13.160Z,14.07
2022-10-13T19:23:40.600Z,14.85
2022-10-13T19:26:21.286Z,13.70
2022-10-13T19:28:48.094Z,13.75
2022-10-13T19:31:17.813Z,14.57
2022-10-13T19:33:47.123Z,13.63
2022-10-13T19:36:37.456Z,12.98
2022-10-13T19:39:08.724Z,11.65
2022-10-13T19:41:37.449Z,12.18
2022-10-13T19:44:05.337Z,12.95
2022-10-13T19:46:50.555Z,13.18
2022-10-13T19:49:20.683Z,13.80
2022-10-13T19:51:52.109Z,13.13
2022-10-13T19:54:21.197Z,13.93
2022-10-13T19:56:51.742Z,13.25
2022-10-13T19:59:19.791Z,12.43
2022-10-13T20:01:52.424Z,13.10
2022-10-13T20:04:30.553Z,12.75
2022-10-13T20:06:59.347Z,13.02
2022-10-13T20:09:29.705Z,13.18
2022-10-13T20:11:56.802Z,12.93
2022-10-13T20:14:31.465Z,14.05
2022-10-13T20:17:00.805Z,14.35
2022-10-13T20:19:28.576Z,14.20
2022-10-13T20:22:05.075Z,14.65
2022-10-13T20:24:36.117Z,15.32
2022-10-13T20:27:04.412Z,16.63
2022-10-13T20:29:35.914Z,17.10
2022-10-13T20:32:08.800Z,17.13
2022-10-13T20:34:36.231Z,16.52
2022-10-13T20:37:09.089Z,15.68
2022-10-13T20:39:40.339Z,16.00
2022-10-13T20:42:07.157Z,13.52
2022-10-13T20:44:33.805Z,13.52
2022-10-13T20:47:00.538Z,13.98
2022-10-13T20:49:27.301Z,13.43
2022-10-13T20:51:53.894Z,14.20
2022-10-13T20:54:20.768Z,14.43
2022-10-13T20:56:47.899Z,14.05
2022-10-13T20:59:14.866Z,13.68
2022-10-13T21:01:41.672Z,14.15
2022-10-13T21:04:08.388Z,14.50
2022-10-13T21:06:36.707Z,14.95
2022-10-13T21:09:05.487Z,15.13
2022-10-13T21:11:32.738Z,15.70
2022-10-13T21:13:59.769Z,15.90
2022-10-13T21:16:28.472Z,15.52
2022-10-13T21:18:56.963Z,14.52
2022-10-13T21:21:27.118Z,15.48
2022-10-13T21:23:59.714Z,14.65
2022-10-13T21:26:28.923Z,15.88
2022-10-13T21:28:56.132Z,15.70
2022-10-13T21:31:24.010Z,15.60
2022-10-13T21:33:51.283Z,14.80
2022-10-13T21:36:30.268Z,15.07
2022-10-13T21:38:59.991Z,14.35
2022-10-13T21:41:27.576Z,15.02
2022-10-13T21:43:54.362Z,13.90
2022-10-13T21:46:29.972Z,15.15
2022-10-13T21:48:59.158Z,14.23
2022-10-13T21:51:29.174Z,16.15
2022-10-13T21:56:25.750Z,14.98
2022-10-13T21:58:53.175Z,13.98
2022-10-13T22:01:20.713Z,15.65
2022-10-13T22:03:48.404Z,14.50
2022-10-13T22:06:19.693Z,15.20
2022-10-13T22:08:50.165Z,14.57
2022-10-13T22:11:28.369Z,15.57
2022-10-13T22:13:59.210Z,16.73
2022-10-13T22:16:29.416Z,16.35
2022-10-13T22:18:57.711Z,15.25
2022-10-13T22:21:45.907Z,15.52
2022-10-13T22:24:21.526Z,15.93
2022-10-13T22:26:49.793Z,15.70
2022-10-13T22:29:20.497Z,15.13
2022-10-13T22:31:47.199Z,15.20
2022-10-13T22:34:14.954Z,18.10
2022-10-13T22:36:44.700Z,16.85
2022-10-13T22:39:12.413Z,15.00
2022-10-13T22:41:39.183Z,14.90
2022-10-13T22:44:06.072Z,15.18
2022-10-13T22:46:34.986Z,15.35
2022-10-13T22:49:03.686Z,17.98
2022-10-13T22:51:32.350Z,16.67
2022-10-13T22:53:59.860Z,15.65
2022-10-13T22:56:29.232Z,16.63
2022-10-13T22:59:05.334Z,15.73
2022-10-13T23:01:32.306Z,15.57
2022-10-13T23:03:59.584Z,16.75
2022-10-13T23:06:29.205Z,16.50
2022-10-13T23:08:59.356Z,18.10
2022-10-13T23:11:26.173Z,17.17
2022-10-13T23:13:53.265Z,17.45
2022-10-13T23:16:23.163Z,15.90
2022-10-13T23:18:50.009Z,15.88
2022-10-13T23:21:24.517Z,16.05
2022-10-13T23:24:00.528Z,15.68
2022-10-13T23:26:28.654Z,16.08
2022-10-13T23:28:56.608Z,16.88
2022-10-13T23:31:24.555Z,16.40
2022-10-13T23:33:51.652Z,15.88
2022-10-13T23:36:21.535Z,19.02
2022-10-13T23:38:53.464Z,17.73
2022-10-13T23:41:20.129Z,17.95
2022-10-13T23:43:46.783Z,19.33
2022-10-13T23:46:13.501Z,17.48
2022-10-13T23:48:40.377Z,18.42
2022-10-13T23:51:15.573Z,18.92
2022-10-13T23:53:42.996Z,19.25
2022-10-13T23:56:11.878Z,18.17
2022-10-13T23:58:40.563Z,18.38
